Terminal Aerodrome Forecast
Issued by NWS Portland, OR

Current Version | Previous Version | Text Only | Print | Product List | Glossary On
Versions: 1 2 3 4 5 6 7 8 9 10 11 12 13 14 15 16
000
FTUS46 KPQR 201726
TAFTTD
TAF
KTTD 201726Z 2018/2118 27005KT P6SM OVC025
     FM201900 26003KT P6SM BKN025
     FM202100 VRB03KT P6SM BKN040
     FM210800 26001KT P6SM OVC030
     FM211000 25001KT P6SM OVC025
     FM211200 00000KT P6SM OVC015=

USA.gov is the U.S. government's official web portal to all federal, state and local government web resources and services.